sensor_id;sensor_type;location;lat;lon;timestamp;P1;durP1;ratioP1;P2;durP2;ratioP2
65009;SDS011;51556;50.002;22.014;2023-06-10T00:02:14;11.00;;;5.90;;
65009;SDS011;51556;50.002;22.014;2023-06-10T00:04:41;8.10;;;6.10;;
65009;SDS011;51556;50.002;22.014;2023-06-10T00:07:10;10.50;;;6.50;;
65009;SDS011;51556;50.002;22.014;2023-06-10T00:09:35;9.60;;;6.10;;
65009;SDS011;51556;50.002;22.014;2023-06-10T00:12:03;7.40;;;5.70;;
65009;SDS011;51556;50.002;22.014;2023-06-10T00:14:33;8.60;;;6.30;;
65009;SDS011;51556;50.002;22.014;2023-06-10T00:17:00;8.40;;;6.00;;
65009;SDS011;51556;50.002;22.014;2023-06-10T00:19:26;10.60;;;6.10;;
65009;SDS011;51556;50.002;22.014;2023-06-10T00:22:01;8.00;;;5.50;;
65009;SDS011;51556;50.002;22.014;2023-06-10T00:24:28;8.80;;;6.40;;
65009;SDS011;51556;50.002;22.014;2023-06-10T00:26:53;8.20;;;5.70;;
65009;SDS011;51556;50.002;22.014;2023-06-10T00:29:19;9.40;;;6.00;;
65009;SDS011;51556;50.002;22.014;2023-06-10T00:31:44;7.80;;;5.80;;
65009;SDS011;51556;50.002;22.014;2023-06-10T00:34:11;8.10;;;5.80;;
65009;SDS011;51556;50.002;22.014;2023-06-10T00:36:37;10.30;;;6.20;;
65009;SDS011;51556;50.002;22.014;2023-06-10T00:39:02;8.70;;;5.60;;
65009;SDS011;51556;50.002;22.014;2023-06-10T00:41:30;8.50;;;5.80;;
65009;SDS011;51556;50.002;22.014;2023-06-10T00:43:56;6.90;;;5.60;;
65009;SDS011;51556;50.002;22.014;2023-06-10T00:46:21;10.10;;;5.60;;
65009;SDS011;51556;50.002;22.014;2023-06-10T00:48:49;8.50;;;5.90;;
65009;SDS011;51556;50.002;22.014;2023-06-10T00:51:15;8.80;;;5.30;;
65009;SDS011;51556;50.002;22.014;2023-06-10T00:53:42;7.20;;;5.30;;
65009;SDS011;51556;50.002;22.014;2023-06-10T00:56:08;10.40;;;6.00;;
65009;SDS011;51556;50.002;22.014;2023-06-10T00:58:35;8.10;;;5.90;;
65009;SDS011;51556;50.002;22.014;2023-06-10T01:01:01;7.90;;;6.00;;
65009;SDS011;51556;50.002;22.014;2023-06-10T01:03:27;9.50;;;5.90;;
65009;SDS011;51556;50.002;22.014;2023-06-10T01:06:31;9.00;;;6.00;;
65009;SDS011;51556;50.002;22.014;2023-06-10T01:08:55;11.10;;;6.40;;
65009;SDS011;51556;50.002;22.014;2023-06-10T01:11:28;9.10;;;5.90;;
65009;SDS011;51556;50.002;22.014;2023-06-10T01:13:59;7.90;;;5.80;;
65009;SDS011;51556;50.002;22.014;2023-06-10T01:16:26;10.50;;;6.30;;
65009;SDS011;51556;50.002;22.014;2023-06-10T01:18:51;11.30;;;6.00;;
65009;SDS011;51556;50.002;22.014;2023-06-10T01:21:20;9.10;;;6.00;;
65009;SDS011;51556;50.002;22.014;2023-06-10T01:23:49;10.40;;;6.10;;
65009;SDS011;51556;50.002;22.014;2023-06-10T01:26:17;9.40;;;6.00;;
65009;SDS011;51556;50.002;22.014;2023-06-10T01:28:48;9.40;;;6.00;;
65009;SDS011;51556;50.002;22.014;2023-06-10T01:31:31;7.90;;;5.80;;
65009;SDS011;51556;50.002;22.014;2023-06-10T01:34:12;8.30;;;5.90;;
65009;SDS011;51556;50.002;22.014;2023-06-10T01:36:41;11.10;;;5.80;;
65009;SDS011;51556;50.002;22.014;2023-06-10T01:39:13;8.70;;;6.20;;
65009;SDS011;51556;50.002;22.014;2023-06-10T01:41:41;8.20;;;6.60;;
65009;SDS011;51556;50.002;22.014;2023-06-10T01:44:07;8.70;;;6.50;;
65009;SDS011;51556;50.002;22.014;2023-06-10T01:46:33;8.70;;;6.40;;
65009;SDS011;51556;50.002;22.014;2023-06-10T01:48:58;9.20;;;6.10;;
65009;SDS011;51556;50.002;22.014;2023-06-10T01:51:23;11.30;;;6.40;;
65009;SDS011;51556;50.002;22.014;2023-06-10T01:53:49;11.30;;;7.40;;
65009;SDS011;51556;50.002;22.014;2023-06-10T01:56:14;8.70;;;6.10;;
65009;SDS011;51556;50.002;22.014;2023-06-10T01:58:43;8.50;;;5.80;;
65009;SDS011;51556;50.002;22.014;2023-06-10T02:01:09;8.40;;;5.00;;
65009;SDS011;51556;50.002;22.014;2023-06-10T02:03:35;11.40;;;5.20;;
65009;SDS011;51556;50.002;22.014;2023-06-10T02:06:01;9.20;;;5.00;;
65009;SDS011;51556;50.002;22.014;2023-06-10T02:08:26;6.40;;;4.80;;
65009;SDS011;51556;50.002;22.014;2023-06-10T02:10:52;7.90;;;4.90;;
65009;SDS011;51556;50.002;22.014;2023-06-10T02:13:18;8.50;;;4.70;;
65009;SDS011;51556;50.002;22.014;2023-06-10T02:15:44;9.30;;;4.70;;
65009;SDS011;51556;50.002;22.014;2023-06-10T02:18:09;6.40;;;4.80;;
65009;SDS011;51556;50.002;22.014;2023-06-10T02:20:37;8.20;;;4.70;;
65009;SDS011;51556;50.002;22.014;2023-06-10T02:23:03;5.50;;;4.50;;
65009;SDS011;51556;50.002;22.014;2023-06-10T02:25:28;6.80;;;4.40;;
65009;SDS011;51556;50.002;22.014;2023-06-10T02:27:54;6.70;;;4.70;;
65009;SDS011;51556;50.002;22.014;2023-06-10T02:30:19;6.90;;;4.40;;
65009;SDS011;51556;50.002;22.014;2023-06-10T02:32:45;6.30;;;4.30;;
65009;SDS011;51556;50.002;22.014;2023-06-10T02:35:16;5.80;;;4.20;;
65009;SDS011;51556;50.002;22.014;2023-06-10T02:37:43;9.00;;;4.10;;
65009;SDS011;51556;50.002;22.014;2023-06-10T02:40:09;6.10;;;4.10;;
65009;SDS011;51556;50.002;22.014;2023-06-10T02:42:35;6.90;;;4.50;;
65009;SDS011;51556;50.002;22.014;2023-06-10T02:45:01;6.10;;;4.60;;
65009;SDS011;51556;50.002;22.014;2023-06-10T02:47:27;5.40;;;4.60;;
65009;SDS011;51556;50.002;22.014;2023-06-10T02:49:52;9.00;;;5.10;;
65009;SDS011;51556;50.002;22.014;2023-06-10T02:52:18;8.20;;;4.90;;
65009;SDS011;51556;50.002;22.014;2023-06-10T02:54:43;7.40;;;4.50;;
65009;SDS011;51556;50.002;22.014;2023-06-10T02:57:10;7.90;;;4.60;;
65009;SDS011;51556;50.002;22.014;2023-06-10T02:59:35;11.00;;;5.10;;
65009;SDS011;51556;50.002;22.014;2023-06-10T03:02:01;7.90;;;4.60;;
65009;SDS011;51556;50.002;22.014;2023-06-10T03:04:26;6.80;;;4.70;;
65009;SDS011;51556;50.002;22.014;2023-06-10T03:06:54;5.60;;;4.50;;
65009;SDS011;51556;50.002;22.014;2023-06-10T03:09:20;6.50;;;4.80;;
65009;SDS011;51556;50.002;22.014;2023-06-10T03:11:46;8.10;;;4.90;;
65009;SDS011;51556;50.002;22.014;2023-06-10T03:14:11;6.90;;;5.30;;
65009;SDS011;51556;50.002;22.014;2023-06-10T03:16:37;7.00;;;4.60;;
65009;SDS011;51556;50.002;22.014;2023-06-10T03:19:05;8.80;;;5.00;;
65009;SDS011;51556;50.002;22.014;2023-06-10T03:21:33;8.80;;;5.40;;
65009;SDS011;51556;50.002;22.014;2023-06-10T03:23:59;10.30;;;5.80;;
65009;SDS011;51556;50.002;22.014;2023-06-10T03:26:26;11.50;;;6.60;;
65009;SDS011;51556;50.002;22.014;2023-06-10T03:28:52;12.30;;;7.00;;
65009;SDS011;51556;50.002;22.014;2023-06-10T03:31:18;10.00;;;7.50;;
65009;SDS011;51556;50.002;22.014;2023-06-10T03:33:44;12.20;;;6.30;;
65009;SDS011;51556;50.002;22.014;2023-06-10T03:36:09;10.80;;;6.30;;
65009;SDS011;51556;50.002;22.014;2023-06-10T03:38:35;11.30;;;6.90;;
65009;SDS011;51556;50.002;22.014;2023-06-10T03:41:01;8.60;;;6.70;;
65009;SDS011;51556;50.002;22.014;2023-06-10T03:43:27;8.60;;;6.10;;
65009;SDS011;51556;50.002;22.014;2023-06-10T03:45:52;11.70;;;7.00;;
65009;SDS011;51556;50.002;22.014;2023-06-10T03:48:18;14.80;;;8.90;;
65009;SDS011;51556;50.002;22.014;2023-06-10T03:50:43;15.30;;;8.90;;
65009;SDS011;51556;50.002;22.014;2023-06-10T03:53:09;13.70;;;9.50;;
65009;SDS011;51556;50.002;22.014;2023-06-10T03:55:35;12.80;;;9.30;;
65009;SDS011;51556;50.002;22.014;2023-06-10T03:58:01;14.40;;;9.90;;
65009;SDS011;51556;50.002;22.014;2023-06-10T04:00:27;12.70;;;9.40;;
65009;SDS011;51556;50.002;22.014;2023-06-10T04:02:53;11.80;;;9.30;;
65009;SDS011;51556;50.002;22.014;2023-06-10T04:05:23;14.90;;;9.60;;
65009;SDS011;51556;50.002;22.014;2023-06-10T04:07:48;14.20;;;9.10;;
65009;SDS011;51556;50.002;22.014;2023-06-10T04:10:15;16.00;;;9.50;;
65009;SDS011;51556;50.002;22.014;2023-06-10T04:12:40;11.70;;;8.70;;
65009;SDS011;51556;50.002;22.014;2023-06-10T04:15:06;11.60;;;8.70;;
65009;SDS011;51556;50.002;22.014;2023-06-10T04:17:32;11.60;;;8.80;;
65009;SDS011;51556;50.002;22.014;2023-06-10T04:19:58;13.60;;;10.00;;
65009;SDS011;51556;50.002;22.014;2023-06-10T04:22:23;12.40;;;9.40;;
65009;SDS011;51556;50.002;22.014;2023-06-10T04:24:49;12.40;;;9.60;;
65009;SDS011;51556;50.002;22.014;2023-06-10T04:27:15;11.80;;;9.20;;
65009;SDS011;51556;50.002;22.014;2023-06-10T04:29:40;12.00;;;9.60;;
65009;SDS011;51556;50.002;22.014;2023-06-10T04:32:06;12.90;;;9.80;;
65009;SDS011;51556;50.002;22.014;2023-06-10T04:34:35;14.30;;;9.90;;
65009;SDS011;51556;50.002;22.014;2023-06-10T04:37:04;12.20;;;9.00;;
65009;SDS011;51556;50.002;22.014;2023-06-10T04:39:30;11.50;;;8.00;;
65009;SDS011;51556;50.002;22.014;2023-06-10T04:41:55;14.60;;;8.80;;
65009;SDS011;51556;50.002;22.014;2023-06-10T04:44:21;11.70;;;8.60;;
65009;SDS011;51556;50.002;22.014;2023-06-10T04:46:46;9.90;;;8.40;;
65009;SDS011;51556;50.002;22.014;2023-06-10T04:49:12;13.30;;;8.20;;
65009;SDS011;51556;50.002;22.014;2023-06-10T04:51:39;11.90;;;7.90;;
65009;SDS011;51556;50.002;22.014;2023-06-10T04:54:04;10.60;;;7.30;;
65009;SDS011;51556;50.002;22.014;2023-06-10T04:56:30;11.60;;;7.50;;
65009;SDS011;51556;50.002;22.014;2023-06-10T04:58:56;9.30;;;7.70;;
65009;SDS011;51556;50.002;22.014;2023-06-10T05:01:22;10.20;;;8.00;;
65009;SDS011;51556;50.002;22.014;2023-06-10T05:03:47;9.40;;;7.60;;
65009;SDS011;51556;50.002;22.014;2023-06-10T05:06:13;10.30;;;8.10;;
65009;SDS011;51556;50.002;22.014;2023-06-10T05:08:38;13.70;;;7.90;;
65009;SDS011;51556;50.002;22.014;2023-06-10T05:11:03;9.40;;;7.90;;
65009;SDS011;51556;50.002;22.014;2023-06-10T05:13:29;10.60;;;8.30;;
65009;SDS011;51556;50.002;22.014;2023-06-10T05:15:54;10.80;;;7.90;;
65009;SDS011;51556;50.002;22.014;2023-06-10T05:18:20;10.70;;;8.10;;
65009;SDS011;51556;50.002;22.014;2023-06-10T05:20:46;12.50;;;8.70;;
65009;SDS011;51556;50.002;22.014;2023-06-10T05:23:11;11.50;;;8.30;;
65009;SDS011;51556;50.002;22.014;2023-06-10T05:25:40;9.80;;;8.30;;
65009;SDS011;51556;50.002;22.014;2023-06-10T05:28:06;12.40;;;7.80;;
65009;SDS011;51556;50.002;22.014;2023-06-10T05:30:35;11.30;;;7.80;;
65009;SDS011;51556;50.002;22.014;2023-06-10T05:33:01;21.30;;;8.10;;
65009;SDS011;51556;50.002;22.014;2023-06-10T05:35:26;9.50;;;7.50;;
65009;SDS011;51556;50.002;22.014;2023-06-10T05:37:52;8.20;;;7.20;;
65009;SDS011;51556;50.002;22.014;2023-06-10T05:40:18;8.70;;;6.70;;
65009;SDS011;51556;50.002;22.014;2023-06-10T05:42:43;9.00;;;7.10;;
65009;SDS011;51556;50.002;22.014;2023-06-10T05:45:09;9.80;;;6.40;;
65009;SDS011;51556;50.002;22.014;2023-06-10T05:47:35;12.40;;;7.60;;
65009;SDS011;51556;50.002;22.014;2023-06-10T05:50:00;9.60;;;6.60;;
65009;SDS011;51556;50.002;22.014;2023-06-10T05:52:26;10.70;;;7.30;;
65009;SDS011;51556;50.002;22.014;2023-06-10T05:54:51;6.00;;;5.30;;
65009;SDS011;51556;50.002;22.014;2023-06-10T05:57:17;9.00;;;5.70;;
65009;SDS011;51556;50.002;22.014;2023-06-10T05:59:42;9.10;;;7.20;;
65009;SDS011;51556;50.002;22.014;2023-06-10T06:02:08;8.40;;;7.40;;
65009;SDS011;51556;50.002;22.014;2023-06-10T06:04:33;10.90;;;6.90;;
65009;SDS011;51556;50.002;22.014;2023-06-10T06:06:59;6.60;;;5.90;;
65009;SDS011;51556;50.002;22.014;2023-06-10T06:09:25;7.60;;;6.50;;
65009;SDS011;51556;50.002;22.014;2023-06-10T06:11:50;12.10;;;6.20;;
65009;SDS011;51556;50.002;22.014;2023-06-10T06:14:16;7.20;;;6.50;;
65009;SDS011;51556;50.002;22.014;2023-06-10T06:16:41;9.50;;;6.70;;
65009;SDS011;51556;50.002;22.014;2023-06-10T06:19:07;7.90;;;6.00;;
65009;SDS011;51556;50.002;22.014;2023-06-10T06:21:34;10.70;;;6.90;;
65009;SDS011;51556;50.002;22.014;2023-06-10T06:24:00;11.00;;;6.60;;
65009;SDS011;51556;50.002;22.014;2023-06-10T06:26:25;10.80;;;6.20;;
65009;SDS011;51556;50.002;22.014;2023-06-10T06:28:51;9.20;;;6.60;;
65009;SDS011;51556;50.002;22.014;2023-06-10T06:31:17;10.80;;;6.80;;
65009;SDS011;51556;50.002;22.014;2023-06-10T06:33:43;7.70;;;6.80;;
65009;SDS011;51556;50.002;22.014;2023-06-10T06:36:08;10.10;;;6.80;;
65009;SDS011;51556;50.002;22.014;2023-06-10T06:38:34;8.60;;;6.50;;
65009;SDS011;51556;50.002;22.014;2023-06-10T06:40:59;8.30;;;6.60;;
65009;SDS011;51556;50.002;22.014;2023-06-10T06:43:29;7.80;;;6.50;;
65009;SDS011;51556;50.002;22.014;2023-06-10T06:45:56;9.80;;;6.90;;
65009;SDS011;51556;50.002;22.014;2023-06-10T06:48:23;10.10;;;6.60;;
65009;SDS011;51556;50.002;22.014;2023-06-10T06:50:48;11.20;;;6.80;;
65009;SDS011;51556;50.002;22.014;2023-06-10T06:53:14;6.80;;;6.10;;
65009;SDS011;51556;50.002;22.014;2023-06-10T06:55:39;9.20;;;6.60;;
65009;SDS011;51556;50.002;22.014;2023-06-10T06:58:05;6.90;;;6.10;;
65009;SDS011;51556;50.002;22.014;2023-06-10T07:00:31;8.60;;;6.30;;
65009;SDS011;51556;50.002;22.014;2023-06-10T07:02:57;10.00;;;6.00;;
65009;SDS011;51556;50.002;22.014;2023-06-10T07:05:23;7.00;;;5.00;;
65009;SDS011;51556;50.002;22.014;2023-06-10T07:07:52;7.60;;;6.50;;
65009;SDS011;51556;50.002;22.014;2023-06-10T07:10:20;8.10;;;6.30;;
65009;SDS011;51556;50.002;22.014;2023-06-10T07:12:50;8.60;;;5.40;;
65009;SDS011;51556;50.002;22.014;2023-06-10T07:15:15;7.10;;;6.40;;
65009;SDS011;51556;50.002;22.014;2023-06-10T07:17:41;8.10;;;6.00;;
65009;SDS011;51556;50.002;22.014;2023-06-10T07:20:06;11.10;;;6.20;;
65009;SDS011;51556;50.002;22.014;2023-06-10T07:22:35;9.20;;;5.50;;
65009;SDS011;51556;50.002;22.014;2023-06-10T07:25:00;16.00;;;6.80;;
65009;SDS011;51556;50.002;22.014;2023-06-10T07:27:26;7.50;;;5.10;;
65009;SDS011;51556;50.002;22.014;2023-06-10T07:29:51;11.50;;;5.80;;
65009;SDS011;51556;50.002;22.014;2023-06-10T07:32:17;6.20;;;5.10;;
65009;SDS011;51556;50.002;22.014;2023-06-10T07:34:45;6.20;;;5.60;;
65009;SDS011;51556;50.002;22.014;2023-06-10T07:37:10;6.30;;;5.60;;
65009;SDS011;51556;50.002;22.014;2023-06-10T07:39:36;6.50;;;5.80;;
65009;SDS011;51556;50.002;22.014;2023-06-10T07:42:01;6.00;;;5.30;;
65009;SDS011;51556;50.002;22.014;2023-06-10T07:44:30;7.40;;;5.40;;
65009;SDS011;51556;50.002;22.014;2023-06-10T07:46:56;10.40;;;5.60;;
65009;SDS011;51556;50.002;22.014;2023-06-10T07:49:23;5.60;;;5.10;;
65009;SDS011;51556;50.002;22.014;2023-06-10T07:51:49;6.50;;;4.90;;
65009;SDS011;51556;50.002;22.014;2023-06-10T07:54:16;6.60;;;5.10;;
65009;SDS011;51556;50.002;22.014;2023-06-10T07:56:41;6.00;;;4.90;;
65009;SDS011;51556;50.002;22.014;2023-06-10T07:59:07;6.60;;;5.20;;
65009;SDS011;51556;50.002;22.014;2023-06-10T08:01:32;5.70;;;5.10;;
65009;SDS011;51556;50.002;22.014;2023-06-10T08:03:58;6.10;;;5.50;;
65009;SDS011;51556;50.002;22.014;2023-06-10T08:06:23;7.00;;;5.60;;
65009;SDS011;51556;50.002;22.014;2023-06-10T08:08:49;6.70;;;5.60;;
65009;SDS011;51556;50.002;22.014;2023-06-10T08:11:14;6.40;;;5.40;;
65009;SDS011;51556;50.002;22.014;2023-06-10T08:13:40;6.00;;;5.40;;
65009;SDS011;51556;50.002;22.014;2023-06-10T08:16:05;6.70;;;5.60;;
65009;SDS011;51556;50.002;22.014;2023-06-10T08:18:31;6.70;;;5.10;;
65009;SDS011;51556;50.002;22.014;2023-06-10T08:20:57;5.80;;;5.20;;
65009;SDS011;51556;50.002;22.014;2023-06-10T08:23:22;5.70;;;5.10;;
65009;SDS011;51556;50.002;22.014;2023-06-10T08:25:48;6.30;;;4.80;;
65009;SDS011;51556;50.002;22.014;2023-06-10T08:28:13;5.90;;;5.10;;
65009;SDS011;51556;50.002;22.014;2023-06-10T08:30:39;5.80;;;5.20;;
65009;SDS011;51556;50.002;22.014;2023-06-10T08:33:04;6.80;;;5.30;;
65009;SDS011;51556;50.002;22.014;2023-06-10T08:35:30;6.40;;;4.50;;
65009;SDS011;51556;50.002;22.014;2023-06-10T08:37:55;7.10;;;5.40;;
65009;SDS011;51556;50.002;22.014;2023-06-10T08:40:21;9.50;;;4.90;;
65009;SDS011;51556;50.002;22.014;2023-06-10T08:42:53;6.70;;;4.80;;
65009;SDS011;51556;50.002;22.014;2023-06-10T08:45:29;6.20;;;5.10;;
65009;SDS011;51556;50.002;22.014;2023-06-10T08:48:00;6.50;;;4.60;;
65009;SDS011;51556;50.002;22.014;2023-06-10T08:52:58;6.20;;;4.70;;
65009;SDS011;51556;50.002;22.014;2023-06-10T08:55:29;7.60;;;5.00;;
65009;SDS011;51556;50.002;22.014;2023-06-10T08:57:58;5.20;;;4.50;;
65009;SDS011;51556;50.002;22.014;2023-06-10T09:00:27;5.10;;;4.60;;
65009;SDS011;51556;50.002;22.014;2023-06-10T09:02:55;6.90;;;4.40;;
65009;SDS011;51556;50.002;22.014;2023-06-10T09:05:21;6.00;;;4.90;;
65009;SDS011;51556;50.002;22.014;2023-06-10T09:07:47;7.90;;;4.70;;
65009;SDS011;51556;50.002;22.014;2023-06-10T09:10:14;8.50;;;4.40;;
65009;SDS011;51556;50.002;22.014;2023-06-10T09:12:39;6.30;;;4.40;;
65009;SDS011;51556;50.002;22.014;2023-06-10T09:15:06;5.50;;;4.60;;
65009;SDS011;51556;50.002;22.014;2023-06-10T09:17:32;6.30;;;4.40;;
65009;SDS011;51556;50.002;22.014;2023-06-10T09:19:59;7.40;;;5.10;;
65009;SDS011;51556;50.002;22.014;2023-06-10T09:22:27;6.00;;;4.20;;
65009;SDS011;51556;50.002;22.014;2023-06-10T09:25:10;4.90;;;3.90;;
65009;SDS011;51556;50.002;22.014;2023-06-10T09:30:39;5.40;;;4.40;;
65009;SDS011;51556;50.002;22.014;2023-06-10T09:33:14;5.20;;;4.10;;
65009;SDS011;51556;50.002;22.014;2023-06-10T09:35:46;5.80;;;4.10;;
65009;SDS011;51556;50.002;22.014;2023-06-10T09:38:13;7.10;;;4.40;;
65009;SDS011;51556;50.002;22.014;2023-06-10T09:40:50;8.80;;;4.90;;
65009;SDS011;51556;50.002;22.014;2023-06-10T09:43:16;7.70;;;4.10;;
65009;SDS011;51556;50.002;22.014;2023-06-10T09:45:42;6.90;;;4.20;;
65009;SDS011;51556;50.002;22.014;2023-06-10T09:48:11;5.70;;;3.80;;
65009;SDS011;51556;50.002;22.014;2023-06-10T09:50:43;5.00;;;3.90;;
65009;SDS011;51556;50.002;22.014;2023-06-10T09:53:09;3.90;;;3.50;;
65009;SDS011;51556;50.002;22.014;2023-06-10T09:55:39;5.20;;;3.40;;
65009;SDS011;51556;50.002;22.014;2023-06-10T09:58:06;4.40;;;4.00;;
65009;SDS011;51556;50.002;22.014;2023-06-10T10:00:32;7.50;;;3.70;;
65009;SDS011;51556;50.002;22.014;2023-06-10T10:02:59;7.50;;;3.60;;
65009;SDS011;51556;50.002;22.014;2023-06-10T10:05:25;4.70;;;3.70;;
65009;SDS011;51556;50.002;22.014;2023-06-10T10:07:51;6.50;;;3.50;;
65009;SDS011;51556;50.002;22.014;2023-06-10T10:10:17;4.00;;;3.60;;
65009;SDS011;51556;50.002;22.014;2023-06-10T10:12:50;6.80;;;3.60;;
65009;SDS011;51556;50.002;22.014;2023-06-10T10:15:21;4.90;;;3.70;;
65009;SDS011;51556;50.002;22.014;2023-06-10T10:17:52;4.50;;;3.60;;
65009;SDS011;51556;50.002;22.014;2023-06-10T10:20:22;3.60;;;3.20;;
65009;SDS011;51556;50.002;22.014;2023-06-10T10:23:12;5.00;;;3.30;;
65009;SDS011;51556;50.002;22.014;2023-06-10T10:25:49;5.10;;;2.80;;
65009;SDS011;51556;50.002;22.014;2023-06-10T10:28:19;4.10;;;3.20;;
65009;SDS011;51556;50.002;22.014;2023-06-10T10:30:49;3.60;;;2.90;;
65009;SDS011;51556;50.002;22.014;2023-06-10T10:33:21;4.80;;;3.20;;
65009;SDS011;51556;50.002;22.014;2023-06-10T10:35:52;3.80;;;3.30;;
65009;SDS011;51556;50.002;22.014;2023-06-10T10:38:26;7.60;;;3.30;;
65009;SDS011;51556;50.002;22.014;2023-06-10T10:40:53;3.90;;;2.90;;
65009;SDS011;51556;50.002;22.014;2023-06-10T10:43:21;3.50;;;2.80;;
65009;SDS011;51556;50.002;22.014;2023-06-10T10:46:09;4.80;;;3.30;;
65009;SDS011;51556;50.002;22.014;2023-06-10T10:48:38;6.60;;;3.60;;
65009;SDS011;51556;50.002;22.014;2023-06-10T10:51:04;3.30;;;2.80;;
65009;SDS011;51556;50.002;22.014;2023-06-10T10:53:30;3.70;;;3.20;;
65009;SDS011;51556;50.002;22.014;2023-06-10T10:56:14;3.60;;;3.20;;
65009;SDS011;51556;50.002;22.014;2023-06-10T10:58:57;5.30;;;3.30;;
65009;SDS011;51556;50.002;22.014;2023-06-10T11:01:33;6.10;;;3.40;;
65009;SDS011;51556;50.002;22.014;2023-06-10T11:04:06;4.40;;;2.90;;
65009;SDS011;51556;50.002;22.014;2023-06-10T11:06:34;4.50;;;3.30;;
65009;SDS011;51556;50.002;22.014;2023-06-10T11:09:27;5.80;;;3.30;;
65009;SDS011;51556;50.002;22.014;2023-06-10T11:11:56;5.20;;;3.50;;
65009;SDS011;51556;50.002;22.014;2023-06-10T11:14:26;4.70;;;3.50;;
65009;SDS011;51556;50.002;22.014;2023-06-10T11:16:57;5.30;;;3.40;;
65009;SDS011;51556;50.002;22.014;2023-06-10T11:19:33;5.90;;;3.10;;
65009;SDS011;51556;50.002;22.014;2023-06-10T11:24:48;3.40;;;3.10;;
65009;SDS011;51556;50.002;22.014;2023-06-10T11:32:34;5.50;;;3.50;;
65009;SDS011;51556;50.002;22.014;2023-06-10T11:37:38;4.60;;;3.60;;
65009;SDS011;51556;50.002;22.014;2023-06-10T11:40:13;3.80;;;3.50;;
65009;SDS011;51556;50.002;22.014;2023-06-10T11:42:40;5.80;;;3.70;;
65009;SDS011;51556;50.002;22.014;2023-06-10T11:45:07;3.40;;;3.10;;
65009;SDS011;51556;50.002;22.014;2023-06-10T11:47:33;4.80;;;3.50;;
65009;SDS011;51556;50.002;22.014;2023-06-10T11:49:59;5.00;;;3.40;;
65009;SDS011;51556;50.002;22.014;2023-06-10T11:52:31;3.30;;;3.00;;
65009;SDS011;51556;50.002;22.014;2023-06-10T11:54:58;4.50;;;3.70;;
65009;SDS011;51556;50.002;22.014;2023-06-10T11:57:24;4.70;;;3.30;;
65009;SDS011;51556;50.002;22.014;2023-06-10T12:00:06;4.40;;;3.60;;
65009;SDS011;51556;50.002;22.014;2023-06-10T12:02:32;4.60;;;3.60;;
65009;SDS011;51556;50.002;22.014;2023-06-10T12:05:09;5.50;;;3.90;;
65009;SDS011;51556;50.002;22.014;2023-06-10T12:07:40;4.10;;;3.60;;
65009;SDS011;51556;50.002;22.014;2023-06-10T12:13:25;3.60;;;3.30;;
65009;SDS011;51556;50.002;22.014;2023-06-10T12:15:53;6.50;;;3.80;;
65009;SDS011;51556;50.002;22.014;2023-06-10T12:18:23;3.70;;;2.90;;
65009;SDS011;51556;50.002;22.014;2023-06-10T12:20:49;4.20;;;3.30;;
65009;SDS011;51556;50.002;22.014;2023-06-10T12:25:55;6.20;;;3.50;;
65009;SDS011;51556;50.002;22.014;2023-06-10T12:28:56;4.00;;;3.60;;
65009;SDS011;51556;50.002;22.014;2023-06-10T12:31:20;6.00;;;3.40;;
65009;SDS011;51556;50.002;22.014;2023-06-10T12:33:46;6.60;;;3.40;;
65009;SDS011;51556;50.002;22.014;2023-06-10T12:36:17;5.10;;;3.60;;
65009;SDS011;51556;50.002;22.014;2023-06-10T12:38:43;4.00;;;3.10;;
65009;SDS011;51556;50.002;22.014;2023-06-10T12:41:09;4.50;;;3.40;;
65009;SDS011;51556;50.002;22.014;2023-06-10T12:43:39;3.50;;;3.10;;
65009;SDS011;51556;50.002;22.014;2023-06-10T12:46:47;4.80;;;3.10;;
65009;SDS011;51556;50.002;22.014;2023-06-10T12:51:31;4.60;;;3.20;;
65009;SDS011;51556;50.002;22.014;2023-06-10T12:53:56;4.30;;;3.20;;
65009;SDS011;51556;50.002;22.014;2023-06-10T12:59:00;6.20;;;3.70;;
65009;SDS011;51556;50.002;22.014;2023-06-10T13:01:25;4.80;;;3.70;;
65009;SDS011;51556;50.002;22.014;2023-06-10T13:03:51;4.30;;;3.80;;
65009;SDS011;51556;50.002;22.014;2023-06-10T13:06:17;4.40;;;3.50;;
65009;SDS011;51556;50.002;22.014;2023-06-10T13:08:43;3.50;;;3.20;;
65009;SDS011;51556;50.002;22.014;2023-06-10T13:11:09;5.40;;;3.70;;
65009;SDS011;51556;50.002;22.014;2023-06-10T13:13:36;4.30;;;3.30;;
65009;SDS011;51556;50.002;22.014;2023-06-10T13:16:02;4.70;;;3.70;;
65009;SDS011;51556;50.002;22.014;2023-06-10T13:18:28;3.80;;;3.50;;
65009;SDS011;51556;50.002;22.014;2023-06-10T13:20:57;4.60;;;3.20;;
65009;SDS011;51556;50.002;22.014;2023-06-10T13:23:22;5.30;;;3.50;;
65009;SDS011;51556;50.002;22.014;2023-06-10T13:25:47;4.50;;;3.10;;
65009;SDS011;51556;50.002;22.014;2023-06-10T13:28:13;3.50;;;3.10;;
65009;SDS011;51556;50.002;22.014;2023-06-10T13:30:39;4.80;;;3.40;;
65009;SDS011;51556;50.002;22.014;2023-06-10T13:33:04;4.50;;;3.30;;
65009;SDS011;51556;50.002;22.014;2023-06-10T13:35:39;4.50;;;3.00;;
65009;SDS011;51556;50.002;22.014;2023-06-10T13:38:05;4.90;;;3.40;;
65009;SDS011;51556;50.002;22.014;2023-06-10T13:40:32;3.20;;;2.90;;
65009;SDS011;51556;50.002;22.014;2023-06-10T13:43:09;4.60;;;3.10;;
65009;SDS011;51556;50.002;22.014;2023-06-10T13:48:19;5.00;;;3.10;;
65009;SDS011;51556;50.002;22.014;2023-06-10T13:50:45;4.10;;;3.10;;
65009;SDS011;51556;50.002;22.014;2023-06-10T13:53:11;4.10;;;3.30;;
65009;SDS011;51556;50.002;22.014;2023-06-10T13:55:37;7.20;;;3.40;;
65009;SDS011;51556;50.002;22.014;2023-06-10T13:58:03;5.20;;;3.40;;
65009;SDS011;51556;50.002;22.014;2023-06-10T14:00:28;4.10;;;3.40;;
65009;SDS011;51556;50.002;22.014;2023-06-10T14:02:54;9.30;;;6.40;;
65009;SDS011;51556;50.002;22.014;2023-06-10T14:05:19;5.50;;;4.40;;
65009;SDS011;51556;50.002;22.014;2023-06-10T14:07:45;3.60;;;3.30;;
65009;SDS011;51556;50.002;22.014;2023-06-10T14:10:49;4.60;;;3.10;;
65009;SDS011;51556;50.002;22.014;2023-06-10T14:16:34;3.40;;;3.10;;
65009;SDS011;51556;50.002;22.014;2023-06-10T14:22:07;4.30;;;2.70;;
65009;SDS011;51556;50.002;22.014;2023-06-10T14:24:33;6.20;;;3.20;;
65009;SDS011;51556;50.002;22.014;2023-06-10T14:27:01;3.90;;;2.90;;
65009;SDS011;51556;50.002;22.014;2023-06-10T14:29:34;4.00;;;3.00;;
65009;SDS011;51556;50.002;22.014;2023-06-10T14:32:21;3.90;;;2.60;;
65009;SDS011;51556;50.002;22.014;2023-06-10T14:34:46;3.70;;;2.60;;
65009;SDS011;51556;50.002;22.014;2023-06-10T14:37:12;4.40;;;2.90;;
65009;SDS011;51556;50.002;22.014;2023-06-10T14:39:37;4.50;;;3.30;;
65009;SDS011;51556;50.002;22.014;2023-06-10T14:42:03;3.40;;;3.00;;
65009;SDS011;51556;50.002;22.014;2023-06-10T14:44:29;4.90;;;3.30;;
65009;SDS011;51556;50.002;22.014;2023-06-10T14:49:32;4.50;;;2.90;;
65009;SDS011;51556;50.002;22.014;2023-06-10T14:51:57;4.70;;;2.90;;
65009;SDS011;51556;50.002;22.014;2023-06-10T14:54:22;4.80;;;3.20;;
65009;SDS011;51556;50.002;22.014;2023-06-10T14:56:48;3.70;;;2.80;;
65009;SDS011;51556;50.002;22.014;2023-06-10T14:59:13;5.00;;;3.20;;
65009;SDS011;51556;50.002;22.014;2023-06-10T15:01:39;3.30;;;3.00;;
65009;SDS011;51556;50.002;22.014;2023-06-10T15:04:04;3.20;;;2.80;;
65009;SDS011;51556;50.002;22.014;2023-06-10T15:06:30;3.90;;;3.00;;
65009;SDS011;51556;50.002;22.014;2023-06-10T15:08:56;4.50;;;3.00;;
65009;SDS011;51556;50.002;22.014;2023-06-10T15:11:21;4.30;;;3.00;;
65009;SDS011;51556;50.002;22.014;2023-06-10T15:13:47;3.30;;;2.90;;